Messwerte Pointe-Noire

Temperatur

Temperatur
°C
1618801200 4.00 4.00 24
1618804800 5.00 5.00 24
1618808400 6.00 6.00
1618812000 7.00 7.00 24
1618815600 8.00 8.00 26
1618819200 9.00 9.00 28
1618822800 10.00 10.00 28
1618826400 11.00 11.00 31
1618830000 12.00 12.00 29
1618833600 13.00 13.00 24
1618837200 14.00 14.00 24
1618840800 15.00 15.00 23
1618844400 16.00 16.00 23
1618848000 17.00 17.00 24
1618851600 18.00 18.00 23
1618855200 19.00 19.00 23
1618858800 20.00 20.00 23
1618862400 21.00 21.00
1618866000 22.00 22.00 24
1618869600 23.00 23.00
1618873200 0.00 0.00
1618876800 1.00 1.00
1618880400 2.00 2.00 24
1618884000 3.00 3.00 23

Aktuellste Messwerte

Wettercharakter
Wetter: freundlich
Temperatur
23 °C
Feuchtigkeit
94 %
Wind
5 km/hWindrichtung: Südost
Luftdruck
1010 hPa
Messzeit: 20. April 2021, 4.00Datenquelle: METAR

Weitere Messstationen in der Nähe

Messstation Temperatur Entfernung
Brazzaville 23 °C 376 km
Franceville - 390 km
Kinshasa 23 °C 394 km
Luanda 24 °C 471 km

Wind

Windrichtung Böen Mittelwind
° km/h km/h
1618801200 4.00 3.00 - 4.00 0
1618804800 5.00 4.00 - 5.00 150° 5
1618808400 6.00 5.00 - 6.00
1618812000 7.00 6.00 - 7.00 120° 5
1618815600 8.00 7.00 - 8.00 90° 10
1618819200 9.00 8.00 - 9.00 80° 5
1618822800 10.00 9.00 - 10.00 80° 5
1618826400 11.00 10.00 - 11.00 5
1618830000 12.00 11.00 - 12.00 220° 10
1618833600 13.00 12.00 - 13.00 180° 15
1618837200 14.00 13.00 - 14.00 140° 15
1618840800 15.00 14.00 - 15.00 120° 15
1618844400 16.00 15.00 - 16.00 120° 10
1618848000 17.00 16.00 - 17.00 160° 15
1618851600 18.00 17.00 - 18.00 150° 15
1618855200 19.00 18.00 - 19.00 120° 10
1618858800 20.00 19.00 - 20.00 50° 5
1618862400 21.00 20.00 - 21.00
1618866000 22.00 21.00 - 22.00 30° 5
1618869600 23.00 22.00 - 23.00
1618873200 0.00 23.00 - 0.00
1618876800 1.00 0.00 - 1.00
1618880400 2.00 1.00 - 2.00 130° 10
1618884000 3.00 2.00 - 3.00 120° 5

Ihre Wetterstation

Fehlt Ihre Wetterstation auf unserem Portal?

Schreiben Sie an network@meteonews.ch